Time,TemperatureF,DewpointF,PressureIn,WindDirection,WindDirectionDegrees,WindSpeedMPH,WindSpeedGustMPH,Humidity,HourlyPrecipIn,Conditions,Clouds,dailyrainin,SoftwareType,DateUTC
2013-07-04 00:00:00,76.3,61.9,29.65,West,270,1.0,2.0,61,0.00,,,0.00,meteohub,2013-07-04 07:00:00,
2013-07-04 00:05:00,76.3,61.9,29.65,West,270,1.0,2.0,61,0.00,,,0.00,meteohub,2013-07-04 07:05:00,
2013-07-04 00:10:00,76.1,61.7,29.65,West,270,1.0,2.0,61,0.00,,,0.00,meteohub,2013-07-04 07:10:00,
2013-07-04 00:16:00,76.1,62.1,29.65,West,270,2.0,2.0,62,0.00,,,0.00,meteohub,2013-07-04 07:16:00,
2013-07-04 00:21:00,76.1,62.1,29.65,West,270,1.0,2.0,62,0.00,,,0.00,meteohub,2013-07-04 07:21:00,
2013-07-04 00:26:00,76.1,62.6,29.65,West,270,2.0,2.0,63,0.00,,,0.00,meteohub,2013-07-04 07:26:00,
2013-07-04 00:31:00,75.9,62.4,29.65,West,270,0.0,2.0,63,0.00,,,0.00,meteohub,2013-07-04 07:31:00,
2013-07-04 00:36:00,75.9,62.4,29.65,West,270,0.0,2.0,63,0.00,,,0.00,meteohub,2013-07-04 07:36:00,
2013-07-04 00:41:00,75.7,62.2,29.65,West,270,1.0,2.0,63,0.00,,,0.00,meteohub,2013-07-04 07:41:00,
2013-07-04 00:46:00,75.7,62.2,29.65,West,270,0.0,2.0,63,0.00,,,0.00,meteohub,2013-07-04 07:46:00,
2013-07-04 00:51:00,75.7,62.2,29.65,South,180,1.0,2.0,63,0.00,,,0.00,meteohub,2013-07-04 07:51:00,
2013-07-04 00:56:00,75.6,62.1,29.65,SW,225,1.0,2.0,63,0.00,,,0.00,meteohub,2013-07-04 07:56:00,
2013-07-04 01:01:00,75.4,61.9,29.65,SW,225,1.0,2.0,63,0.00,,,0.00,meteohub,2013-07-04 08:01:00,
2013-07-04 01:06:00,75.4,61.9,29.65,SW,225,1.0,2.0,63,0.00,,,0.00,meteohub,2013-07-04 08:06:00,
2013-07-04 01:11:00,75.0,62.1,29.65,SW,225,1.0,2.0,64,0.00,,,0.00,meteohub,2013-07-04 08:11:00,
2013-07-04 01:16:00,74.8,61.9,29.65,SW,225,0.0,2.0,64,0.00,,,0.00,meteohub,2013-07-04 08:16:00,
2013-07-04 01:21:00,74.5,61.5,29.65,SW,225,1.0,2.0,64,0.00,,,0.00,meteohub,2013-07-04 08:21:00,
2013-07-04 01:27:00,74.3,61.7,29.65,SW,225,1.0,2.0,65,0.00,,,0.00,meteohub,2013-07-04 08:27:00,
2013-07-04 01:32:00,74.3,61.7,29.65,SW,225,0.0,2.0,65,0.00,,,0.00,meteohub,2013-07-04 08:32:00,
2013-07-04 01:37:00,74.1,61.5,29.65,NE,45,1.0,2.0,65,0.00,,,0.00,meteohub,2013-07-04 08:37:00,
2013-07-04 01:42:00,73.9,61.9,29.65,SW,225,0.0,2.0,66,0.00,,,0.00,meteohub,2013-07-04 08:42:00,
2013-07-04 01:47:00,73.8,61.7,29.65,SW,225,2.0,2.0,66,0.00,,,0.00,meteohub,2013-07-04 08:47:00,
2013-07-04 01:52:00,73.6,61.9,29.65,SW,225,1.0,2.0,67,0.00,,,0.00,meteohub,2013-07-04 08:52:00,
2013-07-04 01:57:00,73.4,62.2,29.65,West,270,0.0,2.0,68,0.00,,,0.00,meteohub,2013-07-04 08:57:00,
2013-07-04 02:02:00,73.2,62.1,29.65,West,270,2.0,2.0,68,0.00,,,0.00,meteohub,2013-07-04 09:02:00,
2013-07-04 02:07:00,73.2,62.1,29.65,West,270,2.0,2.0,68,0.00,,,0.00,meteohub,2013-07-04 09:07:00,
2013-07-04 02:12:00,72.7,61.5,29.65,South,180,2.0,2.0,68,0.00,,,0.00,meteohub,2013-07-04 09:12:00,
2013-07-04 02:17:00,72.7,61.9,29.65,SW,225,1.0,2.0,69,0.00,,,0.00,meteohub,2013-07-04 09:17:00,
2013-07-04 02:22:00,72.5,61.7,29.65,South,180,1.0,2.0,69,0.00,,,0.00,meteohub,2013-07-04 09:22:00,
2013-07-04 02:27:00,72.3,61.5,29.65,West,270,0.0,2.0,69,0.00,,,0.00,meteohub,2013-07-04 09:27:00,
2013-07-04 02:32:00,72.3,62.1,29.65,SE,135,1.0,2.0,70,0.00,,,0.00,meteohub,2013-07-04 09:32:00,
2013-07-04 02:37:00,72.3,62.1,29.65,SE,135,0.0,1.0,70,0.00,,,0.00,meteohub,2013-07-04 09:37:00,
2013-07-04 02:42:00,72.3,62.1,29.65,SE,135,0.0,1.0,70,0.00,,,0.00,meteohub,2013-07-04 09:42:00,
2013-07-04 02:47:00,72.5,62.2,29.65,SE,135,0.0,1.0,70,0.00,,,0.00,meteohub,2013-07-04 09:47:00,
2013-07-04 02:52:00,72.5,62.2,29.65,SE,135,0.0,0.0,70,0.00,,,0.00,meteohub,2013-07-04 09:52:00,
2013-07-04 02:57:00,72.7,62.2,29.65,SE,135,0.0,1.0,70,0.00,,,0.00,meteohub,2013-07-04 09:57:00,
2013-07-04 03:02:00,72.9,62.4,29.65,North,0,0.0,1.0,70,0.00,,,0.00,meteohub,2013-07-04 10:02:00,
2013-07-04 03:08:00,73.2,62.8,29.65,SW,225,0.0,1.0,70,0.00,,,0.00,meteohub,2013-07-04 10:08:00,
2013-07-04 03:13:00,73.2,62.8,29.65,SW,225,0.0,1.0,70,0.00,,,0.00,meteohub,2013-07-04 10:13:00,
2013-07-04 03:18:00,73.4,63.0,29.64,SW,225,1.0,0.0,70,0.00,,,0.00,meteohub,2013-07-04 10:18:00,
2013-07-04 03:23:00,73.6,63.7,29.65,West,270,2.0,2.0,71,0.00,,,0.00,meteohub,2013-07-04 10:23:00,
2013-07-04 03:28:00,73.4,63.9,29.65,SW,225,2.0,2.0,72,0.00,,,0.00,meteohub,2013-07-04 10:28:00,
2013-07-04 03:33:00,73.2,64.0,29.65,West,270,1.0,2.0,73,0.00,,,0.00,meteohub,2013-07-04 10:33:00,
2013-07-04 03:38:00,72.9,63.7,29.65,SE,135,1.0,2.0,73,0.00,,,0.00,meteohub,2013-07-04 10:38:00,
2013-07-04 03:43:00,72.5,63.3,29.65,NE,45,0.0,2.0,73,0.00,,,0.00,meteohub,2013-07-04 10:43:00,
2013-07-04 03:48:00,72.5,63.3,29.65,NE,45,0.0,2.0,73,0.00,,,0.00,meteohub,2013-07-04 10:48:00,
2013-07-04 03:53:00,72.5,63.3,29.64,NE,45,0.0,2.0,73,0.00,,,0.00,meteohub,2013-07-04 10:53:00,
2013-07-04 03:58:00,72.3,63.1,29.65,NW,315,0.0,2.0,73,0.00,,,0.00,meteohub,2013-07-04 10:58:00,
2013-07-04 04:03:00,72.3,63.1,29.65,SW,225,0.0,0.0,73,0.00,,,0.00,meteohub,2013-07-04 11:03:00,
2013-07-04 04:08:00,72.5,63.7,29.65,SW,225,0.0,0.0,74,0.00,,,0.00,meteohub,2013-07-04 11:08:00,
2013-07-04 04:13:00,72.5,63.7,29.65,SW,225,1.0,0.0,74,0.00,,,0.00,meteohub,2013-07-04 11:13:00,
2013-07-04 04:19:00,72.5,63.7,29.65,SW,225,1.0,1.0,74,0.00,,,0.00,meteohub,2013-07-04 11:19:00,
2013-07-04 04:24:00,72.5,63.7,29.65,East,90,1.0,2.0,74,0.00,,,0.00,meteohub,2013-07-04 11:24:00,
2013-07-04 04:29:00,72.5,63.7,29.65,East,90,0.0,2.0,74,0.00,,,0.00,meteohub,2013-07-04 11:29:00,
2013-07-04 04:34:00,72.5,63.7,29.65,East,90,0.0,2.0,74,0.00,,,0.00,meteohub,2013-07-04 11:34:00,
2013-07-04 04:39:00,72.7,63.9,29.65,SW,225,2.0,2.0,74,0.00,,,0.00,meteohub,2013-07-04 11:39:00,
2013-07-04 04:44:00,72.5,64.0,29.65,SW,225,1.0,2.0,75,0.00,,,0.00,meteohub,2013-07-04 11:44:00,
2013-07-04 04:49:00,72.3,63.9,29.65,SW,225,1.0,2.0,75,0.00,,,0.00,meteohub,2013-07-04 11:49:00,
2013-07-04 04:54:00,72.1,63.9,29.65,North,0,0.0,2.0,75,0.00,,,0.00,meteohub,2013-07-04 11:54:00,
2013-07-04 04:59:00,72.0,63.7,29.64,North,0,0.0,2.0,75,0.00,,,0.00,meteohub,2013-07-04 11:59:00,
2013-07-04 05:04:00,72.0,63.7,29.64,NE,45,1.0,2.0,75,0.00,,,0.00,meteohub,2013-07-04 12:04:00,
2013-07-04 05:09:00,71.8,63.5,29.64,NE,45,0.0,2.0,75,0.00,,,0.00,meteohub,2013-07-04 12:09:00,
2013-07-04 05:14:00,71.8,63.5,29.65,South,180,0.0,2.0,75,0.00,,,0.00,meteohub,2013-07-04 12:14:00,
2013-07-04 05:19:00,71.8,63.0,29.64,SW,225,1.0,2.0,74,0.00,,,0.00,meteohub,2013-07-04 12:19:00,
2013-07-04 05:25:00,71.8,63.0,29.64,SE,135,1.0,2.0,74,0.00,,,0.00,meteohub,2013-07-04 12:25:00,
2013-07-04 05:30:00,71.8,63.0,29.65,SW,225,2.0,2.0,74,0.00,,,0.00,meteohub,2013-07-04 12:30:00,
2013-07-04 05:35:00,72.0,63.1,29.65,North,0,1.0,2.0,74,0.00,,,0.00,meteohub,2013-07-04 12:35:00,
2013-07-04 05:40:00,71.8,63.0,29.65,SW,225,0.0,2.0,74,0.00,,,0.00,meteohub,2013-07-04 12:40:00,
2013-07-04 05:45:00,71.8,63.0,29.65,South,180,1.0,2.0,74,0.00,,,0.00,meteohub,2013-07-04 12:45:00,
2013-07-04 05:50:00,71.6,63.3,29.65,South,180,2.0,2.0,75,0.00,,,0.00,meteohub,2013-07-04 12:50:00,
2013-07-04 05:55:00,71.4,63.1,29.65,SW,225,0.0,2.0,75,0.00,,,0.00,meteohub,2013-07-04 12:55:00,
2013-07-04 06:00:00,71.4,63.1,29.65,SW,225,0.0,2.0,75,0.00,,,0.00,meteohub,2013-07-04 13:00:00,
2013-07-04 06:05:00,71.2,62.6,29.65,South,180,0.0,2.0,74,0.00,,,0.00,meteohub,2013-07-04 13:05:00,
2013-07-04 06:10:00,71.2,62.6,29.65,East,90,0.0,2.0,74,0.00,,,0.00,meteohub,2013-07-04 13:10:00,
2013-07-04 06:15:00,71.2,62.6,29.65,East,90,0.0,2.0,74,0.00,,,0.00,meteohub,2013-07-04 13:15:00,
2013-07-04 06:20:00,71.1,62.4,29.65,East,90,0.0,2.0,74,0.00,,,0.00,meteohub,2013-07-04 13:20:00,
2013-07-04 06:25:00,71.1,62.4,29.65,East,90,0.0,0.0,74,0.00,,,0.00,meteohub,2013-07-04 13:25:00,
2013-07-04 06:30:00,71.2,62.6,29.65,SW,225,1.0,1.0,74,0.00,,,0.00,meteohub,2013-07-04 13:30:00,
2013-07-04 06:35:00,71.4,62.8,29.65,South,180,1.0,1.0,74,0.00,,,0.00,meteohub,2013-07-04 13:35:00,
2013-07-04 06:41:00,71.4,62.8,29.65,South,180,1.0,1.0,74,0.00,,,0.00,meteohub,2013-07-04 13:41:00,
2013-07-04 06:46:00,71.6,63.0,29.65,South,180,0.0,1.0,74,0.00,,,0.00,meteohub,2013-07-04 13:46:00,
2013-07-04 06:51:00,71.8,62.6,29.65,SW,225,2.0,2.0,73,0.00,,,0.00,meteohub,2013-07-04 13:51:00,
2013-07-04 06:56:00,72.0,62.8,29.65,North,0,1.0,2.0,73,0.00,,,0.00,meteohub,2013-07-04 13:56:00,
2013-07-04 07:01:00,72.1,63.0,29.65,SW,225,1.0,2.0,73,0.00,,,0.00,meteohub,2013-07-04 14:01:00,
2013-07-04 07:06:00,72.1,62.6,29.65,South,180,1.0,2.0,72,0.00,,,0.00,meteohub,2013-07-04 14:06:00,
2013-07-04 07:11:00,72.3,62.8,29.65,South,180,0.0,2.0,72,0.00,,,0.00,meteohub,2013-07-04 14:11:00,
2013-07-04 07:16:00,72.3,62.8,29.65,SW,225,1.0,2.0,72,0.00,,,0.00,meteohub,2013-07-04 14:16:00,
2013-07-04 07:21:00,72.5,63.0,29.65,South,180,1.0,2.0,72,0.00,,,0.00,meteohub,2013-07-04 14:21:00,
2013-07-04 07:26:00,72.7,63.5,29.66,South,180,0.0,2.0,73,0.00,,,0.00,meteohub,2013-07-04 14:26:00,
2013-07-04 07:31:00,73.0,63.9,29.66,SW,225,2.0,2.0,73,0.00,,,0.00,meteohub,2013-07-04 14:31:00,
2013-07-04 07:36:00,73.4,64.6,29.66,West,270,1.0,2.0,74,0.00,,,0.00,meteohub,2013-07-04 14:36:00,
2013-07-04 07:42:00,73.6,64.4,29.66,North,0,1.0,2.0,73,0.00,,,0.00,meteohub,2013-07-04 14:42:00,
2013-07-04 07:47:00,74.1,64.6,29.66,SW,225,2.0,2.0,72,0.00,,,0.00,meteohub,2013-07-04 14:47:00,
2013-07-04 07:52:00,74.7,65.1,29.66,South,180,1.0,2.0,72,0.00,,,0.00,meteohub,2013-07-04 14:52:00,
2013-07-04 07:57:00,75.2,65.1,29.66,SW,225,1.0,2.0,71,0.00,,,0.00,meteohub,2013-07-04 14:57:00,
2013-07-04 08:02:00,75.7,65.3,29.66,SW,225,2.0,2.0,70,0.00,,,0.00,meteohub,2013-07-04 15:02:00,
2013-07-04 08:07:00,75.9,65.5,29.66,WNW,293,2.0,2.0,70,0.00,,,0.00,meteohub,2013-07-04 15:07:00,
2013-07-04 08:12:00,76.5,65.5,29.66,SE,135,2.0,2.0,69,0.00,,,0.00,meteohub,2013-07-04 15:12:00,
2013-07-04 08:17:00,77.0,65.7,29.67,West,270,2.0,2.0,68,0.00,,,0.00,meteohub,2013-07-04 15:17:00,
2013-07-04 08:22:00,77.5,66.6,29.67,SW,225,2.0,2.0,69,0.00,,,0.00,meteohub,2013-07-04 15:22:00,
2013-07-04 08:27:00,78.3,66.4,29.67,SW,225,2.0,2.0,67,0.00,,,0.00,meteohub,2013-07-04 15:27:00,
2013-07-04 08:32:00,78.8,66.9,29.67,West,270,2.0,2.0,67,0.00,,,0.00,meteohub,2013-07-04 15:32:00,
2013-07-04 08:37:00,79.5,67.6,29.67,West,270,2.0,2.0,67,0.00,,,0.00,meteohub,2013-07-04 15:37:00,
2013-07-04 08:42:00,79.9,68.0,29.67,South,180,1.0,2.0,67,0.00,,,0.00,meteohub,2013-07-04 15:42:00,
2013-07-04 08:47:00,80.2,67.8,29.68,South,180,2.0,2.0,66,0.00,,,0.00,meteohub,2013-07-04 15:47:00,
2013-07-04 08:52:00,81.0,68.0,29.67,SE,135,2.0,2.0,65,0.00,,,0.00,meteohub,2013-07-04 15:52:00,
2013-07-04 08:57:00,81.5,68.2,29.67,West,270,2.0,2.0,64,0.00,,,0.00,meteohub,2013-07-04 15:57:00,
2013-07-04 09:02:00,82.4,68.5,29.67,South,180,2.0,2.0,63,0.00,,,0.00,meteohub,2013-07-04 16:02:00,
2013-07-04 09:07:00,82.9,68.2,29.68,South,180,1.0,2.0,61,0.00,,,0.00,meteohub,2013-07-04 16:07:00,
2013-07-04 09:12:00,83.1,67.8,29.68,South,180,2.0,2.0,60,0.00,,,0.00,meteohub,2013-07-04 16:12:00,
2013-07-04 09:17:00,82.9,67.1,29.67,South,180,2.0,2.0,59,0.00,,,0.00,meteohub,2013-07-04 16:17:00,
2013-07-04 09:22:00,82.4,67.1,29.67,SW,225,1.0,2.0,60,0.00,,,0.00,meteohub,2013-07-04 16:22:00,
2013-07-04 09:27:00,82.0,66.7,29.66,East,90,1.0,2.0,60,0.00,,,0.00,meteohub,2013-07-04 16:27:00,
2013-07-04 09:32:00,81.7,66.4,29.66,SW,225,1.0,2.0,60,0.00,,,0.00,meteohub,2013-07-04 16:32:00,
2013-07-04 09:37:00,81.7,66.9,29.67,SW,225,2.0,2.0,61,0.00,,,0.00,meteohub,2013-07-04 16:37:00,
2013-07-04 09:42:00,81.7,67.8,29.67,West,270,2.0,2.0,63,0.00,,,0.00,meteohub,2013-07-04 16:42:00,
2013-07-04 09:47:00,81.9,66.6,29.67,West,270,2.0,2.0,60,0.00,,,0.00,meteohub,2013-07-04 16:47:00,
2013-07-04 09:52:00,82.2,66.4,29.67,South,180,2.0,2.0,59,0.00,,,0.00,meteohub,2013-07-04 16:52:00,
2013-07-04 09:57:00,83.1,67.3,29.67,North,0,1.0,2.0,59,0.00,,,0.00,meteohub,2013-07-04 16:57:00,
2013-07-04 10:02:00,84.4,68.5,29.67,North,0,1.0,2.0,59,0.00,,,0.00,meteohub,2013-07-04 17:02:00,
2013-07-04 10:07:00,86.0,68.9,29.67,South,180,1.0,3.0,57,0.00,,,0.00,meteohub,2013-07-04 17:07:00,
2013-07-04 10:12:00,87.6,70.5,29.67,West,270,1.0,3.0,57,0.00,,,0.00,meteohub,2013-07-04 17:12:00,
2013-07-04 10:17:00,89.6,71.2,29.67,SW,225,2.0,3.0,55,0.00,,,0.00,meteohub,2013-07-04 17:17:00,
2013-07-04 10:22:00,90.5,71.6,29.67,SE,135,1.0,2.0,54,0.00,,,0.00,meteohub,2013-07-04 17:22:00,
2013-07-04 10:27:00,91.6,72.0,29.67,East,90,2.0,2.0,53,0.00,,,0.00,meteohub,2013-07-04 17:27:00,
2013-07-04 10:32:00,92.5,72.3,29.67,ESE,113,2.0,2.0,52,0.00,,,0.00,meteohub,2013-07-04 17:32:00,
2013-07-04 10:37:00,93.6,72.7,29.66,ESE,113,1.0,2.0,51,0.00,,,0.00,meteohub,2013-07-04 17:37:00,
2013-07-04 10:42:00,94.8,70.9,29.66,SE,135,1.0,2.0,46,0.00,,,0.00,meteohub,2013-07-04 17:42:00,
2013-07-04 10:47:00,95.9,69.1,29.65,North,0,2.0,3.0,42,0.00,,,0.00,meteohub,2013-07-04 17:47:00,
2013-07-04 10:52:00,96.8,66.9,29.65,NE,45,3.0,4.0,38,0.00,,,0.00,meteohub,2013-07-04 17:52:00,
2013-07-04 10:57:00,97.5,67.6,29.65,East,90,3.0,4.0,38,0.00,,,0.00,meteohub,2013-07-04 17:57:00,
2013-07-04 11:02:00,98.2,65.8,29.65,NE,45,5.0,6.0,35,0.00,,,0.00,meteohub,2013-07-04 18:02:00,
2013-07-04 11:07:00,98.8,66.4,29.65,NW,315,4.0,6.0,35,0.00,,,0.00,meteohub,2013-07-04 18:07:00,
2013-07-04 11:12:00,99.3,65.1,29.65,North,0,6.0,8.0,33,0.00,,,0.00,meteohub,2013-07-04 18:12:00,
2013-07-04 11:17:00,100.0,65.8,29.65,North,0,4.0,8.0,33,0.00,,,0.00,meteohub,2013-07-04 18:17:00,
2013-07-04 11:22:00,100.6,65.3,29.65,NE,45,7.0,7.0,32,0.00,,,0.00,meteohub,2013-07-04 18:22:00,
2013-07-04 11:27:00,101.5,66.2,29.65,North,0,4.0,7.0,32,0.00,,,0.00,meteohub,2013-07-04 18:27:00,
2013-07-04 11:32:00,102.4,64.0,29.65,NE,45,2.0,7.0,29,0.00,,,0.00,meteohub,2013-07-04 18:32:00,
2013-07-04 11:37:00,103.5,63.0,29.66,East,90,2.0,7.0,27,0.00,,,0.00,meteohub,2013-07-04 18:37:00,
2013-07-04 11:42:00,104.5,61.7,29.66,NE,45,3.0,4.0,25,0.00,,,0.00,meteohub,2013-07-04 18:42:00,
2013-07-04 11:47:00,105.3,61.2,29.66,NE,45,2.0,4.0,24,0.00,,,0.00,meteohub,2013-07-04 18:47:00,
2013-07-04 11:52:00,105.8,60.4,29.66,North,0,3.0,4.0,23,0.00,,,0.00,meteohub,2013-07-04 18:52:00,
2013-07-04 11:57:00,106.2,59.4,29.66,NE,45,3.0,5.0,22,0.00,,,0.00,meteohub,2013-07-04 18:57:00,
2013-07-04 12:02:00,106.3,56.8,29.65,NE,45,4.0,5.0,20,0.00,,,0.00,meteohub,2013-07-04 19:02:00,
2013-07-04 12:07:00,106.2,56.8,29.65,East,90,4.0,7.0,20,0.00,,,0.00,meteohub,2013-07-04 19:07:00,
2013-07-04 12:12:00,106.3,58.3,29.65,NE,45,4.0,7.0,21,0.00,,,0.00,meteohub,2013-07-04 19:12:00,
2013-07-04 12:17:00,106.5,58.5,29.65,NE,45,4.0,7.0,21,0.00,,,0.00,meteohub,2013-07-04 19:17:00,
2013-07-04 12:22:00,107.2,59.0,29.65,East,90,2.0,7.0,21,0.00,,,0.00,meteohub,2013-07-04 19:22:00,
2013-07-04 12:27:00,107.6,59.4,29.65,North,0,4.0,5.0,21,0.00,,,0.00,meteohub,2013-07-04 19:27:00,
2013-07-04 12:32:00,108.1,57.0,29.65,NE,45,2.0,5.0,19,0.00,,,0.00,meteohub,2013-07-04 19:32:00,
2013-07-04 12:37:00,108.9,59.0,29.65,NE,45,2.0,5.0,20,0.00,,,0.00,meteohub,2013-07-04 19:37:00,
2013-07-04 12:42:00,109.6,59.5,29.65,NE,45,2.0,5.0,20,0.00,,,0.00,meteohub,2013-07-04 19:42:00,
2013-07-04 12:47:00,110.3,61.5,29.64,South,180,3.0,4.0,21,0.00,,,0.00,meteohub,2013-07-04 19:47:00,
2013-07-04 12:52:00,109.9,66.2,29.64,SW,225,2.0,4.0,25,0.00,,,0.00,meteohub,2013-07-04 19:52:00,
2013-07-04 12:57:00,108.7,66.2,29.65,East,90,3.0,4.0,26,0.00,,,0.00,meteohub,2013-07-04 19:57:00,
2013-07-04 13:02:00,108.7,65.1,29.64,South,180,2.0,3.0,25,0.00,,,0.00,meteohub,2013-07-04 20:02:00,
2013-07-04 13:07:00,108.7,65.1,29.64,SW,225,2.0,3.0,25,0.00,,,0.00,meteohub,2013-07-04 20:07:00,
2013-07-04 13:12:00,109.6,65.8,29.64,NW,315,2.0,3.0,25,0.00,,,0.00,meteohub,2013-07-04 20:12:00,
2013-07-04 13:17:00,110.3,68.7,29.64,NW,315,2.0,3.0,27,0.00,,,0.00,meteohub,2013-07-04 20:17:00,
2013-07-04 13:22:00,110.5,67.8,29.64,North,0,2.0,2.0,26,0.00,,,0.00,meteohub,2013-07-04 20:22:00,
2013-07-04 13:27:00,109.9,67.3,29.63,SW,225,2.0,2.0,26,0.00,,,0.00,meteohub,2013-07-04 20:27:00,
2013-07-04 13:32:00,109.6,67.1,29.63,NW,315,3.0,4.0,26,0.00,,,0.00,meteohub,2013-07-04 20:32:00,
2013-07-04 13:37:00,109.2,65.7,29.63,North,0,4.0,4.0,25,0.00,,,0.00,meteohub,2013-07-04 20:37:00,
2013-07-04 13:42:00,109.2,63.1,29.63,NE,45,2.0,4.0,23,0.00,,,0.00,meteohub,2013-07-04 20:42:00,
2013-07-04 13:47:00,109.9,55.4,29.63,South,180,4.0,4.0,17,0.00,,,0.00,meteohub,2013-07-04 20:47:00,
2013-07-04 13:52:00,110.3,57.2,29.63,North,0,2.0,5.0,18,0.00,,,0.00,meteohub,2013-07-04 20:52:00,
2013-07-04 13:57:00,110.5,55.8,29.62,NE,45,2.0,5.0,17,0.00,,,0.00,meteohub,2013-07-04 20:57:00,
2013-07-04 14:02:00,111.0,56.1,29.62,NE,45,2.0,5.0,17,0.00,,,0.00,meteohub,2013-07-04 21:02:00,
2013-07-04 14:07:00,111.9,55.2,29.62,North,0,2.0,4.0,16,0.00,,,0.00,meteohub,2013-07-04 21:07:00,
2013-07-04 14:12:00,112.5,55.6,29.62,East,90,2.0,4.0,16,0.00,,,0.00,meteohub,2013-07-04 21:12:00,
2013-07-04 14:17:00,112.8,54.1,29.62,NW,315,4.0,4.0,15,0.00,,,0.00,meteohub,2013-07-04 21:17:00,
2013-07-04 14:22:00,113.2,50.5,29.62,East,90,2.0,4.0,13,0.00,,,0.00,meteohub,2013-07-04 21:22:00,
2013-07-04 14:27:00,113.2,50.5,29.62,NE,45,4.0,4.0,13,0.00,,,0.00,meteohub,2013-07-04 21:27:00,
2013-07-04 14:32:00,112.5,52.0,29.61,NW,315,2.0,5.0,14,0.00,,,0.00,meteohub,2013-07-04 21:32:00,
2013-07-04 14:38:00,112.6,52.2,29.61,NE,45,2.0,5.0,14,0.00,,,0.00,meteohub,2013-07-04 21:38:00,
2013-07-04 14:43:00,113.2,50.5,29.61,SW,225,2.0,5.0,13,0.00,,,0.00,meteohub,2013-07-04 21:43:00,
2013-07-04 14:48:00,113.4,52.7,29.60,North,0,2.0,3.0,14,0.00,,,0.00,meteohub,2013-07-04 21:48:00,
2013-07-04 14:53:00,113.9,51.1,29.60,NE,45,2.0,3.0,13,0.00,,,0.00,meteohub,2013-07-04 21:53:00,
2013-07-04 14:58:00,114.3,51.4,29.60,NE,45,2.0,3.0,13,0.00,,,0.00,meteohub,2013-07-04 21:58:00,
2013-07-04 15:03:00,114.4,51.4,29.60,East,90,2.0,3.0,13,0.00,,,0.00,meteohub,2013-07-04 22:03:00,
2013-07-04 15:08:00,114.4,55.4,29.59,SW,225,3.0,3.0,15,0.00,,,0.00,meteohub,2013-07-04 22:08:00,
2013-07-04 15:13:00,114.1,55.2,29.59,NNW,338,3.0,3.0,15,0.00,,,0.00,meteohub,2013-07-04 22:13:00,
2013-07-04 15:18:00,113.9,58.5,29.59,SW,225,2.0,3.0,17,0.00,,,0.00,meteohub,2013-07-04 22:18:00,
2013-07-04 15:23:00,113.7,59.9,29.59,East,90,2.0,3.0,18,0.00,,,0.00,meteohub,2013-07-04 22:23:00,
2013-07-04 15:28:00,113.4,64.0,29.59,SW,225,2.0,3.0,21,0.00,,,0.00,meteohub,2013-07-04 22:28:00,
2013-07-04 15:33:00,113.0,60.8,29.59,SW,225,2.0,2.0,19,0.00,,,0.00,meteohub,2013-07-04 22:33:00,
2013-07-04 15:38:00,113.2,66.6,29.58,West,270,2.0,2.0,23,0.00,,,0.00,meteohub,2013-07-04 22:38:00,
2013-07-04 15:44:00,113.0,66.4,29.58,West,270,2.0,2.0,23,0.00,,,0.00,meteohub,2013-07-04 22:44:00,
2013-07-04 15:49:00,112.8,66.2,29.58,NW,315,2.0,2.0,23,0.00,,,0.00,meteohub,2013-07-04 22:49:00,
2013-07-04 15:54:00,112.3,65.7,29.57,NW,315,2.0,2.0,23,0.00,,,0.00,meteohub,2013-07-04 22:54:00,
2013-07-04 15:59:00,111.9,66.7,29.58,West,270,2.0,5.0,24,0.00,,,0.00,meteohub,2013-07-04 22:59:00,
2013-07-04 16:04:00,111.6,67.5,29.57,West,270,2.0,5.0,25,0.00,,,0.00,meteohub,2013-07-04 23:04:00,
2013-07-04 16:09:00,111.2,67.3,29.57,SW,225,2.0,5.0,25,0.00,,,0.00,meteohub,2013-07-04 23:09:00,
2013-07-04 16:14:00,110.8,65.8,29.57,SW,225,4.0,4.0,24,0.00,,,0.00,meteohub,2013-07-04 23:14:00,
2013-07-04 16:19:00,110.7,66.7,29.56,South,180,2.0,4.0,25,0.00,,,0.00,meteohub,2013-07-04 23:19:00,
2013-07-04 16:24:00,110.7,66.7,29.56,North,0,2.0,4.0,25,0.00,,,0.00,meteohub,2013-07-04 23:24:00,
2013-07-04 16:29:00,110.7,66.7,29.56,West,270,2.0,4.0,25,0.00,,,0.00,meteohub,2013-07-04 23:29:00,
2013-07-04 16:34:00,110.5,67.8,29.56,SW,225,2.0,2.0,26,0.00,,,0.00,meteohub,2013-07-04 23:34:00,
2013-07-04 16:40:00,110.1,67.5,29.56,West,270,2.0,2.0,26,0.00,,,0.00,meteohub,2013-07-04 23:40:00,
2013-07-04 16:45:00,109.8,68.2,29.55,West,270,2.0,2.0,27,0.00,,,0.00,meteohub,2013-07-04 23:45:00,
2013-07-04 16:50:00,109.2,67.8,29.55,SW,225,2.0,2.0,27,0.00,,,0.00,meteohub,2013-07-04 23:50:00,
2013-07-04 16:55:00,108.9,68.5,29.55,East,90,2.0,2.0,28,0.00,,,0.00,meteohub,2013-07-04 23:55:00,
2013-07-04 17:00:00,108.5,69.3,29.55,West,270,2.0,2.0,29,0.00,,,0.00,meteohub,2013-07-05 00:00:00,
2013-07-04 17:05:00,108.0,69.8,29.55,South,180,2.0,2.0,30,0.00,,,0.00,meteohub,2013-07-05 00:05:00,
2013-07-04 17:10:00,107.6,68.5,29.55,SW,225,2.0,2.0,29,0.00,,,0.00,meteohub,2013-07-05 00:10:00,
2013-07-04 17:15:00,106.9,68.9,29.54,West,270,2.0,2.0,30,0.00,,,0.00,meteohub,2013-07-05 00:15:00,
2013-07-04 17:20:00,106.2,68.4,29.54,West,270,2.0,2.0,30,0.00,,,0.00,meteohub,2013-07-05 00:20:00,
2013-07-04 17:25:00,105.6,68.7,29.54,SW,225,2.0,2.0,31,0.00,,,0.00,meteohub,2013-07-05 00:25:00,
2013-07-04 17:30:00,105.1,69.3,29.54,West,270,2.0,2.0,32,0.00,,,0.00,meteohub,2013-07-05 00:30:00,
2013-07-04 17:35:00,104.7,68.9,29.54,SW,225,2.0,2.0,32,0.00,,,0.00,meteohub,2013-07-05 00:35:00,
2013-07-04 17:40:00,104.4,69.4,29.54,West,270,2.0,2.0,33,0.00,,,0.00,meteohub,2013-07-05 00:40:00,
2013-07-04 17:46:00,104.0,68.4,29.53,East,90,2.0,2.0,32,0.00,,,0.00,meteohub,2013-07-05 00:46:00,
2013-07-04 17:51:00,104.0,68.4,29.53,SE,135,1.0,2.0,32,0.00,,,0.00,meteohub,2013-07-05 00:51:00,
2013-07-04 17:56:00,103.5,67.8,29.53,SW,225,2.0,2.0,32,0.00,,,0.00,meteohub,2013-07-05 00:56:00,
2013-07-04 18:01:00,103.1,66.6,29.53,SE,135,3.0,3.0,31,0.00,,,0.00,meteohub,2013-07-05 01:01:00,
2013-07-04 18:06:00,102.4,66.9,29.53,SE,135,2.0,3.0,32,0.00,,,0.00,meteohub,2013-07-05 01:06:00,
2013-07-04 18:11:00,101.7,67.1,29.53,East,90,2.0,3.0,33,0.00,,,0.00,meteohub,2013-07-05 01:11:00,
2013-07-04 18:16:00,100.9,68.2,29.53,SW,225,2.0,3.0,35,0.00,,,0.00,meteohub,2013-07-05 01:16:00,
2013-07-04 18:21:00,100.6,68.0,29.53,SE,135,1.0,3.0,35,0.00,,,0.00,meteohub,2013-07-05 01:21:00,
2013-07-04 18:26:00,100.2,68.4,29.53,SW,225,2.0,3.0,36,0.00,,,0.00,meteohub,2013-07-05 01:26:00,
2013-07-04 18:31:00,100.0,69.1,29.52,North,0,1.0,2.0,37,0.00,,,0.00,meteohub,2013-07-05 01:31:00,
2013-07-04 18:36:00,100.0,69.1,29.53,North,0,2.0,2.0,37,0.00,,,0.00,meteohub,2013-07-05 01:36:00,
2013-07-04 18:41:00,100.0,68.4,29.52,South,180,2.0,2.0,36,0.00,,,0.00,meteohub,2013-07-05 01:41:00,
2013-07-04 18:47:00,100.0,68.4,29.52,SW,225,2.0,2.0,36,0.00,,,0.00,meteohub,2013-07-05 01:47:00,
2013-07-04 18:52:00,100.2,67.6,29.52,SW,225,0.0,2.0,35,0.00,,,0.00,meteohub,2013-07-05 01:52:00,
2013-07-04 18:57:00,100.6,68.0,29.52,NE,45,2.0,2.0,35,0.00,,,0.00,meteohub,2013-07-05 01:57:00,
2013-07-04 19:02:00,101.1,65.8,29.52,SW,225,2.0,4.0,32,0.00,,,0.00,meteohub,2013-07-05 02:02:00,
2013-07-04 19:07:00,102.2,64.9,29.52,South,180,2.0,4.0,30,0.00,,,0.00,meteohub,2013-07-05 02:07:00,
2013-07-04 19:12:00,102.2,63.0,29.52,West,270,4.0,4.0,28,0.00,,,0.00,meteohub,2013-07-05 02:12:00,
2013-07-04 19:17:00,102.2,59.7,29.52,West,270,2.0,4.0,25,0.00,,,0.00,meteohub,2013-07-05 02:17:00,
2013-07-04 19:22:00,102.4,58.6,29.52,North,0,2.0,4.0,24,0.00,,,0.00,meteohub,2013-07-05 02:22:00,
2013-07-04 19:27:00,102.4,57.6,29.52,South,180,3.0,4.0,23,0.00,,,0.00,meteohub,2013-07-05 02:27:00,
2013-07-04 19:32:00,102.0,59.5,29.52,West,270,2.0,4.0,25,0.00,,,0.00,meteohub,2013-07-05 02:32:00,
2013-07-04 19:37:00,101.5,59.2,29.53,SW,225,2.0,4.0,25,0.00,,,0.00,meteohub,2013-07-05 02:37:00,
2013-07-04 19:42:00,100.4,60.4,29.53,SW,225,1.0,3.0,27,0.00,,,0.00,meteohub,2013-07-05 02:42:00,
2013-07-04 19:47:00,99.7,61.7,29.53,SE,135,0.0,2.0,29,0.00,,,0.00,meteohub,2013-07-05 02:47:00,
2013-07-04 19:52:00,99.0,62.1,29.53,SW,225,0.0,2.0,30,0.00,,,0.00,meteohub,2013-07-05 02:52:00,
2013-07-04 19:57:00,98.1,64.0,29.53,West,270,1.0,2.0,33,0.00,,,0.00,meteohub,2013-07-05 02:57:00,
2013-07-04 20:02:00,96.8,63.9,29.53,North,0,2.0,2.0,34,0.00,,,0.00,meteohub,2013-07-05 03:02:00,
2013-07-04 20:07:00,95.7,62.8,29.53,West,270,1.0,2.0,34,0.00,,,0.00,meteohub,2013-07-05 03:07:00,
2013-07-04 20:12:00,94.6,62.8,29.53,SW,225,1.0,2.0,35,0.00,,,0.00,meteohub,2013-07-05 03:12:00,
2013-07-04 20:17:00,93.2,61.5,29.54,SW,225,1.0,2.0,35,0.00,,,0.00,meteohub,2013-07-05 03:17:00,
2013-07-04 20:22:00,92.5,60.8,29.54,North,0,2.0,2.0,35,0.00,,,0.00,meteohub,2013-07-05 03:22:00,
2013-07-04 20:27:00,92.1,58.1,29.54,SW,225,2.0,2.0,32,0.00,,,0.00,meteohub,2013-07-05 03:27:00,
2013-07-04 20:32:00,92.8,55.9,29.54,SW,225,3.0,3.0,29,0.00,,,0.00,meteohub,2013-07-05 03:32:00,
2013-07-04 20:37:00,93.4,57.4,29.54,South,180,2.0,8.0,30,0.00,,,0.00,meteohub,2013-07-05 03:37:00,
2013-07-04 20:42:00,93.4,57.4,29.54,South,180,2.0,8.0,30,0.00,,,0.00,meteohub,2013-07-05 03:42:00,
2013-07-04 20:47:00,94.3,55.2,29.55,SW,225,2.0,3.0,27,0.00,,,0.00,meteohub,2013-07-05 03:47:00,
2013-07-04 20:52:00,94.3,54.1,29.54,West,270,2.0,2.0,26,0.00,,,0.00,meteohub,2013-07-05 03:52:00,
2013-07-04 20:57:00,94.3,54.1,29.54,NE,45,2.0,2.0,26,0.00,,,0.00,meteohub,2013-07-05 03:57:00,
2013-07-04 21:01:00,94.5,53.2,29.54,NW,315,4.0,4.0,25,0.00,,,0.00,meteohub,2013-07-05 04:01:00,
2013-07-04 21:02:00,94.5,53.2,29.54,NW,315,4.0,4.0,25,0.00,,,0.00,meteohub,2013-07-05 04:02:00,
2013-07-04 21:03:00,94.5,53.2,29.54,NW,315,4.0,4.0,25,0.00,,,0.00,meteohub,2013-07-05 04:03:00,
2013-07-04 21:05:00,94.5,53.2,29.54,NW,315,4.0,4.0,25,0.00,,,0.00,meteohub,2013-07-05 04:05:00,
2013-07-04 21:10:00,94.1,52.9,29.54,SW,225,2.0,4.0,25,0.00,,,0.00,meteohub,2013-07-05 04:10:00,
2013-07-04 21:15:00,93.9,51.6,29.55,SE,135,2.0,4.0,24,0.00,,,0.00,meteohub,2013-07-05 04:15:00,
2013-07-04 21:20:00,93.7,50.4,29.54,SW,225,3.0,4.0,23,0.00,,,0.00,meteohub,2013-07-05 04:20:00,
2013-07-04 21:25:00,93.7,50.4,29.55,SE,135,2.0,3.0,23,0.00,,,0.00,meteohub,2013-07-05 04:25:00,
2013-07-04 21:30:00,93.4,50.0,29.55,SW,225,3.0,5.0,23,0.00,,,0.00,meteohub,2013-07-05 04:30:00,
2013-07-04 21:36:00,93.0,50.9,29.55,SW,225,1.0,5.0,24,0.00,,,0.00,meteohub,2013-07-05 04:36:00,
2013-07-04 21:41:00,92.1,54.3,29.55,SW,225,1.0,4.0,28,0.00,,,0.00,meteohub,2013-07-05 04:41:00,
2013-07-04 21:46:00,90.9,56.1,29.56,South,180,2.0,3.0,31,0.00,,,0.00,meteohub,2013-07-05 04:46:00,
2013-07-04 21:51:00,89.2,55.6,29.56,SW,225,0.0,2.0,32,0.00,,,0.00,meteohub,2013-07-05 04:51:00,
2013-07-04 21:56:00,87.8,55.0,29.56,SW,225,0.0,2.0,33,0.00,,,0.00,meteohub,2013-07-05 04:56:00,
2013-07-04 22:01:00,87.3,55.4,29.56,South,180,2.0,2.0,34,0.00,,,0.00,meteohub,2013-07-05 05:01:00,
2013-07-04 22:06:00,87.3,55.4,29.56,South,180,2.0,2.0,34,0.00,,,0.00,meteohub,2013-07-05 05:06:00,
2013-07-04 22:11:00,85.1,56.7,29.56,NE,45,1.0,2.0,38,0.00,,,0.00,meteohub,2013-07-05 05:11:00,
2013-07-04 22:16:00,84.2,56.5,29.56,SW,225,1.0,2.0,39,0.00,,,0.00,meteohub,2013-07-05 05:16:00,
2013-07-04 22:21:00,83.3,57.2,29.56,SW,225,1.0,2.0,41,0.00,,,0.00,meteohub,2013-07-05 05:21:00,
2013-07-04 22:26:00,82.6,57.2,29.56,North,0,1.0,2.0,42,0.00,,,0.00,meteohub,2013-07-05 05:26:00,
2013-07-04 22:31:00,81.7,57.0,29.56,SW,225,1.0,2.0,43,0.00,,,0.00,meteohub,2013-07-05 05:31:00,
2013-07-04 22:36:00,81.0,57.0,29.56,South,180,1.0,1.0,44,0.00,,,0.00,meteohub,2013-07-05 05:36:00,
2013-07-04 22:41:00,80.1,56.8,29.56,SE,135,1.0,1.0,45,0.00,,,0.00,meteohub,2013-07-05 05:41:00,
2013-07-04 22:47:00,79.3,56.1,29.56,South,180,2.0,2.0,45,0.00,,,0.00,meteohub,2013-07-05 05:47:00,
2013-07-04 22:52:00,78.8,55.6,29.56,South,180,1.0,2.0,45,0.00,,,0.00,meteohub,2013-07-05 05:52:00,
2013-07-04 22:57:00,78.4,55.4,29.56,SW,225,1.0,2.0,45,0.00,,,0.00,meteohub,2013-07-05 05:57:00,
2013-07-04 23:02:00,78.3,55.8,29.56,SW,225,1.0,2.0,46,0.00,,,0.00,meteohub,2013-07-05 06:02:00,
2013-07-04 23:07:00,78.3,55.8,29.56,SW,225,1.0,2.0,46,0.00,,,0.00,meteohub,2013-07-05 06:07:00,
2013-07-04 23:12:00,77.4,55.6,29.55,SW,225,0.0,1.0,47,0.00,,,0.00,meteohub,2013-07-05 06:12:00,
2013-07-04 23:17:00,76.8,55.0,29.55,North,0,0.0,2.0,47,0.00,,,0.00,meteohub,2013-07-05 06:17:00,
2013-07-04 23:22:00,76.5,54.7,29.55,North,0,2.0,2.0,47,0.00,,,0.00,meteohub,2013-07-05 06:22:00,
2013-07-04 23:27:00,76.1,53.8,29.55,South,180,1.0,2.0,46,0.00,,,0.00,meteohub,2013-07-05 06:27:00,
2013-07-04 23:32:00,75.9,53.6,29.55,South,180,1.0,2.0,46,0.00,,,0.00,meteohub,2013-07-05 06:32:00,
2013-07-04 23:37:00,75.7,53.4,29.55,SW,225,1.0,2.0,46,0.00,,,0.00,meteohub,2013-07-05 06:37:00,
2013-07-04 23:42:00,75.7,53.4,29.55,North,0,1.0,2.0,46,0.00,,,0.00,meteohub,2013-07-05 06:42:00,
2013-07-04 23:47:00,75.6,54.0,29.54,SE,135,1.0,2.0,47,0.00,,,0.00,meteohub,2013-07-05 06:47:00,
2013-07-04 23:52:00,75.2,53.6,29.54,SE,135,1.0,2.0,47,0.00,,,0.00,meteohub,2013-07-05 06:52:00,
2013-07-04 23:57:00,75.0,53.4,29.54,SW,225,1.0,2.0,47,0.00,,,0.00,meteohub,2013-07-05 06:57:00,